FQLC

Lichinga Airport

Lichinga, Mozambique
METAR FQLC 172200Z 04004KT 5000 FU NSC 20/12 Q1019
Observed Flight Rules
Oct-17 @ 22:00 UTC (4 hours ago) Marginal Visual Flight Rules
Wind Visibility Clouds Conditions
40° at 4 knots 5,005 meters
  • Clear skies
  • Smoke
Temperatures Readings
Current 20°C / 68°F
Dewpoint 12°C / 54°F
Humidity 60%
Altimeter 30.09" Hg
Pressure 1019 hPa
Elevation 1365
METAR FQLC 172200Z 04004KT 5000 FU NSC 20/12 Q1019
Observed Flight Rules
Oct-17 @ 22:00 UTC
(4 hours ago)
MVFR
Wind Visibility
40° at 4 knots 5,005 meters
Clouds
  • Clear skies
Conditions
  • Smoke
Temperature Dewpoint
20°C / 68°F 12°C / 54°F
Humidity Altimeter Pressure
60% 30.09" Hg 1019 hPa